sensor_id;sensor_type;location;lat;lon;timestamp;P1;durP1;ratioP1;P2;durP2;ratioP2
67051;SDS011;53957;47.222;18.670;2022-10-12T00:02:29;11.55;;;9.45;;
67051;SDS011;53957;47.222;18.670;2022-10-12T00:05:32;23.30;;;8.77;;
67051;SDS011;53957;47.222;18.670;2022-10-12T00:08:35;13.93;;;8.90;;
67051;SDS011;53957;47.222;18.670;2022-10-12T00:11:39;13.55;;;8.82;;
67051;SDS011;53957;47.222;18.670;2022-10-12T00:14:42;13.43;;;9.27;;
67051;SDS011;53957;47.222;18.670;2022-10-12T00:17:45;15.38;;;9.20;;
67051;SDS011;53957;47.222;18.670;2022-10-12T00:20:58;11.85;;;9.10;;
67051;SDS011;53957;47.222;18.670;2022-10-12T00:24:03;12.75;;;9.43;;
67051;SDS011;53957;47.222;18.670;2022-10-12T00:27:06;16.15;;;9.65;;
67051;SDS011;53957;47.222;18.670;2022-10-12T00:30:09;14.87;;;10.27;;
67051;SDS011;53957;47.222;18.670;2022-10-12T00:33:12;15.27;;;10.52;;
67051;SDS011;53957;47.222;18.670;2022-10-12T00:36:36;19.00;;;10.35;;
67051;SDS011;53957;47.222;18.670;2022-10-12T00:39:38;13.07;;;9.32;;
67051;SDS011;53957;47.222;18.670;2022-10-12T00:42:41;16.27;;;10.32;;
67051;SDS011;53957;47.222;18.670;2022-10-12T00:45:44;20.15;;;11.30;;
67051;SDS011;53957;47.222;18.670;2022-10-12T00:48:49;14.80;;;10.88;;
67051;SDS011;53957;47.222;18.670;2022-10-12T00:52:09;14.48;;;11.25;;
67051;SDS011;53957;47.222;18.670;2022-10-12T00:55:16;16.50;;;10.85;;
67051;SDS011;53957;47.222;18.670;2022-10-12T00:58:21;18.48;;;10.82;;
67051;SDS011;53957;47.222;18.670;2022-10-12T01:01:24;13.82;;;11.45;;
67051;SDS011;53957;47.222;18.670;2022-10-12T01:04:27;18.75;;;12.15;;
67051;SDS011;53957;47.222;18.670;2022-10-12T01:07:34;14.23;;;10.93;;
67051;SDS011;53957;47.222;18.670;2022-10-12T01:10:37;17.10;;;10.55;;
67051;SDS011;53957;47.222;18.670;2022-10-12T01:13:40;15.55;;;11.57;;
67051;SDS011;53957;47.222;18.670;2022-10-12T01:30:10;17.75;;;11.63;;
67051;SDS011;53957;47.222;18.670;2022-10-12T01:36:32;14.98;;;10.88;;
67051;SDS011;53957;47.222;18.670;2022-10-12T01:39:59;14.75;;;11.18;;
67051;SDS011;53957;47.222;18.670;2022-10-12T01:43:08;19.83;;;11.13;;
67051;SDS011;53957;47.222;18.670;2022-10-12T01:49:15;17.73;;;11.10;;
67051;SDS011;53957;47.222;18.670;2022-10-12T01:52:31;17.70;;;12.20;;
67051;SDS011;53957;47.222;18.670;2022-10-12T01:55:48;21.23;;;12.95;;
67051;SDS011;53957;47.222;18.670;2022-10-12T02:11:36;17.37;;;12.25;;
67051;SDS011;53957;47.222;18.670;2022-10-12T02:14:46;25.73;;;12.75;;
67051;SDS011;53957;47.222;18.670;2022-10-12T02:17:52;20.67;;;12.45;;
67051;SDS011;53957;47.222;18.670;2022-10-12T02:20:55;21.23;;;13.50;;
67051;SDS011;53957;47.222;18.670;2022-10-12T02:24:04;18.12;;;12.63;;
67051;SDS011;53957;47.222;18.670;2022-10-12T02:27:09;17.25;;;11.38;;
67051;SDS011;53957;47.222;18.670;2022-10-12T02:30:15;19.58;;;12.55;;
67051;SDS011;53957;47.222;18.670;2022-10-12T02:36:53;18.73;;;12.88;;
67051;SDS011;53957;47.222;18.670;2022-10-12T02:40:15;17.98;;;12.77;;
67051;SDS011;53957;47.222;18.670;2022-10-12T02:46:43;17.50;;;11.12;;
67051;SDS011;53957;47.222;18.670;2022-10-12T02:49:48;18.67;;;12.02;;
67051;SDS011;53957;47.222;18.670;2022-10-12T02:52:52;18.25;;;12.05;;
67051;SDS011;53957;47.222;18.670;2022-10-12T02:56:00;17.37;;;12.02;;
67051;SDS011;53957;47.222;18.670;2022-10-12T02:59:06;17.65;;;12.48;;
67051;SDS011;53957;47.222;18.670;2022-10-12T03:02:09;18.23;;;11.07;;
67051;SDS011;53957;47.222;18.670;2022-10-12T03:05:12;19.10;;;12.82;;
67051;SDS011;53957;47.222;18.670;2022-10-12T03:08:15;19.12;;;13.10;;
67051;SDS011;53957;47.222;18.670;2022-10-12T03:11:18;16.37;;;12.25;;
67051;SDS011;53957;47.222;18.670;2022-10-12T03:14:21;18.12;;;12.48;;
67051;SDS011;53957;47.222;18.670;2022-10-12T03:17:24;17.90;;;11.93;;
67051;SDS011;53957;47.222;18.670;2022-10-12T03:20:29;20.73;;;12.95;;
67051;SDS011;53957;47.222;18.670;2022-10-12T03:23:31;17.80;;;11.95;;
67051;SDS011;53957;47.222;18.670;2022-10-12T03:26:34;24.15;;;13.57;;
67051;SDS011;53957;47.222;18.670;2022-10-12T03:29:37;15.85;;;11.88;;
67051;SDS011;53957;47.222;18.670;2022-10-12T03:32:40;19.33;;;12.15;;
67051;SDS011;53957;47.222;18.670;2022-10-12T03:35:43;18.42;;;12.00;;
67051;SDS011;53957;47.222;18.670;2022-10-12T03:38:47;18.87;;;12.35;;
67051;SDS011;53957;47.222;18.670;2022-10-12T03:41:49;18.17;;;12.32;;
67051;SDS011;53957;47.222;18.670;2022-10-12T03:44:52;17.58;;;12.32;;
67051;SDS011;53957;47.222;18.670;2022-10-12T03:47:55;19.50;;;12.05;;
67051;SDS011;53957;47.222;18.670;2022-10-12T03:51:05;21.65;;;12.13;;
67051;SDS011;53957;47.222;18.670;2022-10-12T03:54:08;19.75;;;12.98;;
67051;SDS011;53957;47.222;18.670;2022-10-12T03:57:11;20.40;;;11.82;;
67051;SDS011;53957;47.222;18.670;2022-10-12T04:00:13;19.17;;;12.45;;
67051;SDS011;53957;47.222;18.670;2022-10-12T04:03:17;18.42;;;12.50;;
67051;SDS011;53957;47.222;18.670;2022-10-12T04:06:19;16.60;;;11.75;;
67051;SDS011;53957;47.222;18.670;2022-10-12T04:09:23;22.48;;;13.05;;
67051;SDS011;53957;47.222;18.670;2022-10-12T04:12:25;18.52;;;12.55;;
67051;SDS011;53957;47.222;18.670;2022-10-12T04:15:28;18.42;;;11.63;;
67051;SDS011;53957;47.222;18.670;2022-10-12T04:18:31;27.70;;;12.48;;
67051;SDS011;53957;47.222;18.670;2022-10-12T04:21:35;18.37;;;12.88;;
67051;SDS011;53957;47.222;18.670;2022-10-12T04:24:38;19.45;;;12.37;;
67051;SDS011;53957;47.222;18.670;2022-10-12T04:27:41;20.00;;;12.50;;
67051;SDS011;53957;47.222;18.670;2022-10-12T04:30:44;19.62;;;13.30;;
67051;SDS011;53957;47.222;18.670;2022-10-12T04:33:47;18.02;;;12.00;;
67051;SDS011;53957;47.222;18.670;2022-10-12T04:36:50;20.48;;;12.93;;
67051;SDS011;53957;47.222;18.670;2022-10-12T04:39:53;19.73;;;12.82;;
67051;SDS011;53957;47.222;18.670;2022-10-12T04:42:56;18.67;;;12.75;;
67051;SDS011;53957;47.222;18.670;2022-10-12T04:45:59;19.75;;;12.45;;
67051;SDS011;53957;47.222;18.670;2022-10-12T04:49:02;19.70;;;12.93;;
67051;SDS011;53957;47.222;18.670;2022-10-12T04:52:25;23.35;;;13.43;;
67051;SDS011;53957;47.222;18.670;2022-10-12T04:55:28;20.58;;;11.88;;
67051;SDS011;53957;47.222;18.670;2022-10-12T04:58:31;22.35;;;13.70;;
67051;SDS011;53957;47.222;18.670;2022-10-12T05:01:54;21.12;;;12.75;;
67051;SDS011;53957;47.222;18.670;2022-10-12T05:04:59;19.70;;;13.75;;
67051;SDS011;53957;47.222;18.670;2022-10-12T05:08:22;21.75;;;12.60;;
67051;SDS011;53957;47.222;18.670;2022-10-12T05:11:29;23.65;;;13.38;;
67051;SDS011;53957;47.222;18.670;2022-10-12T05:14:32;18.80;;;13.35;;
67051;SDS011;53957;47.222;18.670;2022-10-12T05:17:37;21.25;;;13.43;;
67051;SDS011;53957;47.222;18.670;2022-10-12T05:21:01;20.02;;;12.45;;
67051;SDS011;53957;47.222;18.670;2022-10-12T05:24:04;22.75;;;13.05;;
67051;SDS011;53957;47.222;18.670;2022-10-12T05:27:07;25.23;;;13.80;;
67051;SDS011;53957;47.222;18.670;2022-10-12T05:30:12;28.70;;;13.52;;
67051;SDS011;53957;47.222;18.670;2022-10-12T05:33:25;17.87;;;13.52;;
67051;SDS011;53957;47.222;18.670;2022-10-12T05:36:28;22.08;;;13.75;;
67051;SDS011;53957;47.222;18.670;2022-10-12T05:39:34;20.60;;;13.55;;
67051;SDS011;53957;47.222;18.670;2022-10-12T05:42:38;20.17;;;12.90;;
67051;SDS011;53957;47.222;18.670;2022-10-12T05:45:42;23.45;;;16.02;;
67051;SDS011;53957;47.222;18.670;2022-10-12T05:48:49;25.17;;;15.60;;
67051;SDS011;53957;47.222;18.670;2022-10-12T05:51:52;28.27;;;13.68;;
67051;SDS011;53957;47.222;18.670;2022-10-12T05:54:58;24.30;;;14.57;;
67051;SDS011;53957;47.222;18.670;2022-10-12T05:58:03;24.05;;;14.38;;
67051;SDS011;53957;47.222;18.670;2022-10-12T06:01:07;22.52;;;14.18;;
67051;SDS011;53957;47.222;18.670;2022-10-12T06:04:12;16.17;;;13.70;;
67051;SDS011;53957;47.222;18.670;2022-10-12T06:07:15;17.58;;;12.90;;
67051;SDS011;53957;47.222;18.670;2022-10-12T06:10:18;19.90;;;14.07;;
67051;SDS011;53957;47.222;18.670;2022-10-12T06:13:36;20.48;;;13.20;;
67051;SDS011;53957;47.222;18.670;2022-10-12T06:16:39;21.92;;;14.82;;
67051;SDS011;53957;47.222;18.670;2022-10-12T06:19:41;25.27;;;15.18;;
67051;SDS011;53957;47.222;18.670;2022-10-12T06:23:06;21.50;;;15.27;;
67051;SDS011;53957;47.222;18.670;2022-10-12T07:03:03;22.35;;;14.05;;
67051;SDS011;53957;47.222;18.670;2022-10-12T07:06:10;21.52;;;14.48;;
67051;SDS011;53957;47.222;18.670;2022-10-12T07:09:15;18.95;;;12.63;;
67051;SDS011;53957;47.222;18.670;2022-10-12T07:12:18;21.35;;;14.00;;
67051;SDS011;53957;47.222;18.670;2022-10-12T07:15:21;21.12;;;13.35;;
67051;SDS011;53957;47.222;18.670;2022-10-12T07:18:24;24.70;;;15.05;;
67051;SDS011;53957;47.222;18.670;2022-10-12T07:21:27;18.45;;;13.68;;
67051;SDS011;53957;47.222;18.670;2022-10-12T07:24:30;17.73;;;13.27;;
67051;SDS011;53957;47.222;18.670;2022-10-12T07:27:37;22.83;;;13.88;;
67051;SDS011;53957;47.222;18.670;2022-10-12T07:30:41;20.95;;;13.32;;
67051;SDS011;53957;47.222;18.670;2022-10-12T07:33:45;20.37;;;13.07;;
67051;SDS011;53957;47.222;18.670;2022-10-12T07:36:48;19.70;;;12.95;;
67051;SDS011;53957;47.222;18.670;2022-10-12T07:40:01;19.48;;;12.80;;
67051;SDS011;53957;47.222;18.670;2022-10-12T07:43:04;15.82;;;11.00;;
67051;SDS011;53957;47.222;18.670;2022-10-12T07:46:17;19.67;;;12.77;;
67051;SDS011;53957;47.222;18.670;2022-10-12T07:49:22;16.10;;;11.48;;
67051;SDS011;53957;47.222;18.670;2022-10-12T07:52:24;15.43;;;10.55;;
67051;SDS011;53957;47.222;18.670;2022-10-12T07:55:30;14.57;;;10.00;;
67051;SDS011;53957;47.222;18.670;2022-10-12T07:58:33;17.73;;;9.07;;
67051;SDS011;53957;47.222;18.670;2022-10-12T08:01:36;16.85;;;9.40;;
67051;SDS011;53957;47.222;18.670;2022-10-12T08:04:39;10.93;;;8.68;;
67051;SDS011;53957;47.222;18.670;2022-10-12T08:07:42;19.52;;;9.70;;
67051;SDS011;53957;47.222;18.670;2022-10-12T08:10:45;12.73;;;8.52;;
67051;SDS011;53957;47.222;18.670;2022-10-12T08:13:48;14.60;;;8.70;;
67051;SDS011;53957;47.222;18.670;2022-10-12T08:16:51;11.65;;;8.65;;
67051;SDS011;53957;47.222;18.670;2022-10-12T08:19:54;14.63;;;8.57;;
67051;SDS011;53957;47.222;18.670;2022-10-12T08:23:18;12.27;;;8.43;;
67051;SDS011;53957;47.222;18.670;2022-10-12T08:26:25;11.73;;;8.02;;
67051;SDS011;53957;47.222;18.670;2022-10-12T08:29:29;9.40;;;7.78;;
67051;SDS011;53957;47.222;18.670;2022-10-12T08:32:34;9.68;;;8.50;;
67051;SDS011;53957;47.222;18.670;2022-10-12T08:39:34;13.73;;;8.73;;
67051;SDS011;53957;47.222;18.670;2022-10-12T08:43:00;12.80;;;8.20;;
67051;SDS011;53957;47.222;18.670;2022-10-12T08:46:04;13.52;;;7.65;;
67051;SDS011;53957;47.222;18.670;2022-10-12T08:49:22;12.82;;;8.60;;
67051;SDS011;53957;47.222;18.670;2022-10-12T08:55:49;15.63;;;8.40;;
67051;SDS011;53957;47.222;18.670;2022-10-12T08:58:53;11.38;;;7.90;;
67051;SDS011;53957;47.222;18.670;2022-10-12T09:06:05;14.05;;;7.62;;
67051;SDS011;53957;47.222;18.670;2022-10-12T09:16:47;7.95;;;6.55;;
67051;SDS011;53957;47.222;18.670;2022-10-12T09:20:00;14.68;;;7.43;;
67051;SDS011;53957;47.222;18.670;2022-10-12T09:23:44;12.90;;;7.45;;
67051;SDS011;53957;47.222;18.670;2022-10-12T09:27:12;10.07;;;7.82;;
67051;SDS011;53957;47.222;18.670;2022-10-12T09:34:40;9.77;;;7.45;;
67051;SDS011;53957;47.222;18.670;2022-10-12T09:37:46;13.00;;;7.53;;
67051;SDS011;53957;47.222;18.670;2022-10-12T09:41:15;14.57;;;8.23;;
67051;SDS011;53957;47.222;18.670;2022-10-12T09:44:25;11.45;;;7.05;;
67051;SDS011;53957;47.222;18.670;2022-10-12T09:47:33;8.98;;;6.65;;
67051;SDS011;53957;47.222;18.670;2022-10-12T09:50:38;10.68;;;6.10;;
67051;SDS011;53957;47.222;18.670;2022-10-12T09:53:59;14.02;;;6.53;;
67051;SDS011;53957;47.222;18.670;2022-10-12T09:57:06;11.45;;;5.85;;
67051;SDS011;53957;47.222;18.670;2022-10-12T10:00:26;8.55;;;5.68;;
67051;SDS011;53957;47.222;18.670;2022-10-12T10:03:29;8.48;;;5.35;;
67051;SDS011;53957;47.222;18.670;2022-10-12T10:06:33;9.35;;;5.80;;
67051;SDS011;53957;47.222;18.670;2022-10-12T10:09:38;7.18;;;5.07;;
67051;SDS011;53957;47.222;18.670;2022-10-12T10:12:54;12.02;;;5.95;;
67051;SDS011;53957;47.222;18.670;2022-10-12T10:16:04;13.77;;;5.78;;
67051;SDS011;53957;47.222;18.670;2022-10-12T10:19:13;10.63;;;5.30;;
67051;SDS011;53957;47.222;18.670;2022-10-12T10:22:23;7.25;;;4.68;;
67051;SDS011;53957;47.222;18.670;2022-10-12T10:25:26;9.75;;;4.90;;
67051;SDS011;53957;47.222;18.670;2022-10-12T10:28:36;6.97;;;4.95;;
67051;SDS011;53957;47.222;18.670;2022-10-12T10:31:40;4.80;;;4.30;;
67051;SDS011;53957;47.222;18.670;2022-10-12T10:34:43;11.57;;;5.00;;
67051;SDS011;53957;47.222;18.670;2022-10-12T10:38:14;8.00;;;5.05;;
67051;SDS011;53957;47.222;18.670;2022-10-12T10:41:17;7.12;;;5.25;;
67051;SDS011;53957;47.222;18.670;2022-10-12T10:44:25;9.50;;;4.72;;
67051;SDS011;53957;47.222;18.670;2022-10-12T10:47:31;8.25;;;5.43;;
67051;SDS011;53957;47.222;18.670;2022-10-12T10:51:04;10.02;;;4.70;;
67051;SDS011;53957;47.222;18.670;2022-10-12T10:54:12;10.90;;;4.82;;
67051;SDS011;53957;47.222;18.670;2022-10-12T10:57:24;7.65;;;4.90;;
67051;SDS011;53957;47.222;18.670;2022-10-12T11:00:29;11.43;;;5.15;;
67051;SDS011;53957;47.222;18.670;2022-10-12T11:03:54;8.60;;;4.85;;
67051;SDS011;53957;47.222;18.670;2022-10-12T11:07:00;6.30;;;4.62;;
67051;SDS011;53957;47.222;18.670;2022-10-12T11:10:18;10.55;;;4.72;;
67051;SDS011;53957;47.222;18.670;2022-10-12T11:19:59;6.28;;;4.75;;
67051;SDS011;53957;47.222;18.670;2022-10-12T11:26:55;7.60;;;4.57;;
67051;SDS011;53957;47.222;18.670;2022-10-12T11:30:14;6.55;;;4.18;;
67051;SDS011;53957;47.222;18.670;2022-10-12T11:33:42;10.55;;;4.47;;
67051;SDS011;53957;47.222;18.670;2022-10-12T11:36:48;7.10;;;4.87;;
67051;SDS011;53957;47.222;18.670;2022-10-12T11:40:16;6.28;;;4.75;;
67051;SDS011;53957;47.222;18.670;2022-10-12T11:43:48;7.45;;;4.97;;
67051;SDS011;53957;47.222;18.670;2022-10-12T11:47:45;5.45;;;4.40;;
67051;SDS011;53957;47.222;18.670;2022-10-12T11:50:52;7.07;;;4.20;;
67051;SDS011;53957;47.222;18.670;2022-10-12T11:57:38;5.82;;;4.82;;
67051;SDS011;53957;47.222;18.670;2022-10-12T12:00:54;8.18;;;4.95;;
67051;SDS011;53957;47.222;18.670;2022-10-12T12:04:01;8.80;;;4.70;;
67051;SDS011;53957;47.222;18.670;2022-10-12T12:10:53;11.32;;;5.53;;
67051;SDS011;53957;47.222;18.670;2022-10-12T12:17:29;5.90;;;4.03;;
67051;SDS011;53957;47.222;18.670;2022-10-12T12:23:52;14.45;;;4.93;;
67051;SDS011;53957;47.222;18.670;2022-10-12T12:27:00;9.02;;;4.72;;
67051;SDS011;53957;47.222;18.670;2022-10-12T12:33:35;8.00;;;4.55;;
67051;SDS011;53957;47.222;18.670;2022-10-12T12:36:44;13.30;;;5.28;;
67051;SDS011;53957;47.222;18.670;2022-10-12T12:39:55;6.43;;;4.40;;
67051;SDS011;53957;47.222;18.670;2022-10-12T12:50:01;7.28;;;4.65;;
67051;SDS011;53957;47.222;18.670;2022-10-12T12:53:24;7.05;;;4.85;;
67051;SDS011;53957;47.222;18.670;2022-10-12T13:10:37;5.82;;;5.12;;
67051;SDS011;53957;47.222;18.670;2022-10-12T13:20:28;6.00;;;4.05;;
67051;SDS011;53957;47.222;18.670;2022-10-12T13:23:42;6.60;;;4.63;;
67051;SDS011;53957;47.222;18.670;2022-10-12T13:27:22;8.10;;;4.50;;
67051;SDS011;53957;47.222;18.670;2022-10-12T13:30:44;5.18;;;4.20;;
67051;SDS011;53957;47.222;18.670;2022-10-12T13:37:10;12.30;;;4.72;;
67051;SDS011;53957;47.222;18.670;2022-10-12T13:40:28;10.18;;;4.62;;
67051;SDS011;53957;47.222;18.670;2022-10-12T13:47:21;6.57;;;5.22;;
67051;SDS011;53957;47.222;18.670;2022-10-12T13:50:59;10.82;;;4.55;;
67051;SDS011;53957;47.222;18.670;2022-10-12T13:54:14;8.27;;;4.82;;
67051;SDS011;53957;47.222;18.670;2022-10-12T14:00:41;7.95;;;5.00;;
67051;SDS011;53957;47.222;18.670;2022-10-12T14:03:49;13.43;;;5.32;;
67051;SDS011;53957;47.222;18.670;2022-10-12T14:06:54;8.52;;;4.93;;
67051;SDS011;53957;47.222;18.670;2022-10-12T14:10:38;7.32;;;4.78;;
67051;SDS011;53957;47.222;18.670;2022-10-12T14:13:43;8.20;;;5.18;;
67051;SDS011;53957;47.222;18.670;2022-10-12T14:16:48;10.43;;;4.78;;
67051;SDS011;53957;47.222;18.670;2022-10-12T14:19:52;6.28;;;4.75;;
67051;SDS011;53957;47.222;18.670;2022-10-12T14:23:00;13.85;;;5.85;;
67051;SDS011;53957;47.222;18.670;2022-10-12T14:26:13;7.85;;;6.20;;
67051;SDS011;53957;47.222;18.670;2022-10-12T14:29:43;8.52;;;5.40;;
67051;SDS011;53957;47.222;18.670;2022-10-12T14:32:47;9.13;;;5.80;;
67051;SDS011;53957;47.222;18.670;2022-10-12T14:36:13;9.35;;;5.53;;
67051;SDS011;53957;47.222;18.670;2022-10-12T14:39:22;10.57;;;5.55;;
67051;SDS011;53957;47.222;18.670;2022-10-12T14:45:30;12.35;;;5.40;;
67051;SDS011;53957;47.222;18.670;2022-10-12T14:48:35;6.32;;;5.12;;
67051;SDS011;53957;47.222;18.670;2022-10-12T14:51:53;9.07;;;5.62;;
67051;SDS011;53957;47.222;18.670;2022-10-12T14:54:57;10.00;;;5.50;;
67051;SDS011;53957;47.222;18.670;2022-10-12T14:58:00;9.77;;;5.60;;
67051;SDS011;53957;47.222;18.670;2022-10-12T15:01:04;6.95;;;5.55;;
67051;SDS011;53957;47.222;18.670;2022-10-12T15:04:16;7.50;;;5.07;;
67051;SDS011;53957;47.222;18.670;2022-10-12T15:07:23;5.90;;;4.80;;
67051;SDS011;53957;47.222;18.670;2022-10-12T15:10:48;9.45;;;6.15;;
67051;SDS011;53957;47.222;18.670;2022-10-12T15:13:52;7.32;;;5.00;;
67051;SDS011;53957;47.222;18.670;2022-10-12T15:16:55;8.77;;;5.55;;
67051;SDS011;53957;47.222;18.670;2022-10-12T15:19:59;16.08;;;6.75;;
67051;SDS011;53957;47.222;18.670;2022-10-12T15:23:02;22.75;;;8.55;;
67051;SDS011;53957;47.222;18.670;2022-10-12T15:26:05;32.55;;;14.25;;
67051;SDS011;53957;47.222;18.670;2022-10-12T15:29:08;28.25;;;14.90;;
67051;SDS011;53957;47.222;18.670;2022-10-12T15:32:11;28.02;;;13.52;;
67051;SDS011;53957;47.222;18.670;2022-10-12T15:35:16;20.40;;;10.02;;
67051;SDS011;53957;47.222;18.670;2022-10-12T15:38:24;16.65;;;9.70;;
67051;SDS011;53957;47.222;18.670;2022-10-12T15:41:56;13.45;;;8.75;;
67051;SDS011;53957;47.222;18.670;2022-10-12T15:44:59;16.42;;;7.93;;
67051;SDS011;53957;47.222;18.670;2022-10-12T15:48:03;14.25;;;6.87;;
67051;SDS011;53957;47.222;18.670;2022-10-12T15:51:35;12.27;;;6.62;;
67051;SDS011;53957;47.222;18.670;2022-10-12T15:54:41;9.85;;;6.22;;
67051;SDS011;53957;47.222;18.670;2022-10-12T15:57:50;9.15;;;5.82;;
67051;SDS011;53957;47.222;18.670;2022-10-12T16:00:53;10.95;;;5.97;;
67051;SDS011;53957;47.222;18.670;2022-10-12T16:03:58;9.68;;;6.15;;
67051;SDS011;53957;47.222;18.670;2022-10-12T16:07:00;10.55;;;6.43;;
67051;SDS011;53957;47.222;18.670;2022-10-12T16:10:03;16.55;;;5.62;;
67051;SDS011;53957;47.222;18.670;2022-10-12T16:13:07;9.30;;;5.72;;
67051;SDS011;53957;47.222;18.670;2022-10-12T16:16:13;13.62;;;5.78;;
67051;SDS011;53957;47.222;18.670;2022-10-12T16:19:16;7.45;;;5.72;;
67051;SDS011;53957;47.222;18.670;2022-10-12T16:22:19;12.90;;;6.25;;
67051;SDS011;53957;47.222;18.670;2022-10-12T16:25:22;15.93;;;5.82;;
67051;SDS011;53957;47.222;18.670;2022-10-12T16:28:26;20.88;;;6.97;;
67051;SDS011;53957;47.222;18.670;2022-10-12T16:31:29;19.40;;;6.50;;
67051;SDS011;53957;47.222;18.670;2022-10-12T16:34:32;9.43;;;5.70;;
67051;SDS011;53957;47.222;18.670;2022-10-12T16:37:35;25.08;;;6.18;;
67051;SDS011;53957;47.222;18.670;2022-10-12T16:40:38;22.13;;;5.10;;
67051;SDS011;53957;47.222;18.670;2022-10-12T16:43:44;12.60;;;5.32;;
67051;SDS011;53957;47.222;18.670;2022-10-12T16:46:47;21.70;;;5.50;;
67051;SDS011;53957;47.222;18.670;2022-10-12T16:49:51;10.57;;;5.62;;
67051;SDS011;53957;47.222;18.670;2022-10-12T16:52:55;11.85;;;4.78;;
67051;SDS011;53957;47.222;18.670;2022-10-12T16:55:58;12.48;;;5.75;;
67051;SDS011;53957;47.222;18.670;2022-10-12T16:59:01;17.60;;;5.30;;
67051;SDS011;53957;47.222;18.670;2022-10-12T17:02:04;7.10;;;5.72;;
67051;SDS011;53957;47.222;18.670;2022-10-12T17:05:07;19.45;;;7.57;;
67051;SDS011;53957;47.222;18.670;2022-10-12T17:08:10;11.90;;;6.80;;
67051;SDS011;53957;47.222;18.670;2022-10-12T17:11:17;11.63;;;8.52;;
67051;SDS011;53957;47.222;18.670;2022-10-12T17:14:20;8.73;;;6.50;;
67051;SDS011;53957;47.222;18.670;2022-10-12T17:17:23;8.15;;;6.55;;
67051;SDS011;53957;47.222;18.670;2022-10-12T17:20:25;15.63;;;6.95;;
67051;SDS011;53957;47.222;18.670;2022-10-12T17:23:28;12.45;;;7.15;;
67051;SDS011;53957;47.222;18.670;2022-10-12T17:26:31;11.43;;;7.12;;
67051;SDS011;53957;47.222;18.670;2022-10-12T17:29:38;9.27;;;6.90;;
67051;SDS011;53957;47.222;18.670;2022-10-12T17:32:42;9.55;;;6.30;;
67051;SDS011;53957;47.222;18.670;2022-10-12T17:35:45;10.73;;;6.30;;
67051;SDS011;53957;47.222;18.670;2022-10-12T17:38:48;11.63;;;6.18;;
67051;SDS011;53957;47.222;18.670;2022-10-12T17:41:51;8.68;;;6.35;;
67051;SDS011;53957;47.222;18.670;2022-10-12T17:44:54;6.90;;;6.00;;
67051;SDS011;53957;47.222;18.670;2022-10-12T17:47:57;8.68;;;6.05;;
67051;SDS011;53957;47.222;18.670;2022-10-12T17:51:04;10.45;;;6.25;;
67051;SDS011;53957;47.222;18.670;2022-10-12T17:54:11;11.50;;;6.18;;
67051;SDS011;53957;47.222;18.670;2022-10-12T17:57:14;11.35;;;5.78;;
67051;SDS011;53957;47.222;18.670;2022-10-12T18:00:17;16.95;;;5.87;;
67051;SDS011;53957;47.222;18.670;2022-10-12T18:03:21;9.05;;;6.28;;
67051;SDS011;53957;47.222;18.670;2022-10-12T18:06:27;8.55;;;5.93;;
67051;SDS011;53957;47.222;18.670;2022-10-12T18:09:31;8.27;;;6.25;;
67051;SDS011;53957;47.222;18.670;2022-10-12T18:12:33;6.45;;;5.30;;
67051;SDS011;53957;47.222;18.670;2022-10-12T18:15:40;11.73;;;6.00;;
67051;SDS011;53957;47.222;18.670;2022-10-12T18:18:44;11.93;;;6.45;;
67051;SDS011;53957;47.222;18.670;2022-10-12T18:21:52;10.23;;;6.32;;
67051;SDS011;53957;47.222;18.670;2022-10-12T18:24:54;7.90;;;5.95;;
67051;SDS011;53957;47.222;18.670;2022-10-12T18:27:57;11.60;;;6.28;;
67051;SDS011;53957;47.222;18.670;2022-10-12T18:31:00;10.32;;;6.75;;
67051;SDS011;53957;47.222;18.670;2022-10-12T18:34:04;11.50;;;7.25;;
67051;SDS011;53957;47.222;18.670;2022-10-12T18:37:07;7.43;;;6.00;;
67051;SDS011;53957;47.222;18.670;2022-10-12T18:40:10;8.95;;;6.28;;
67051;SDS011;53957;47.222;18.670;2022-10-12T18:43:13;8.60;;;6.35;;
67051;SDS011;53957;47.222;18.670;2022-10-12T18:46:16;12.85;;;7.40;;
67051;SDS011;53957;47.222;18.670;2022-10-12T18:49:19;14.73;;;7.20;;
67051;SDS011;53957;47.222;18.670;2022-10-12T18:52:22;10.52;;;7.25;;
67051;SDS011;53957;47.222;18.670;2022-10-12T18:55:25;10.48;;;7.45;;
67051;SDS011;53957;47.222;18.670;2022-10-12T18:58:28;11.65;;;7.93;;
67051;SDS011;53957;47.222;18.670;2022-10-12T19:01:31;13.15;;;7.60;;
67051;SDS011;53957;47.222;18.670;2022-10-12T19:04:34;10.10;;;7.45;;
67051;SDS011;53957;47.222;18.670;2022-10-12T19:07:37;8.65;;;7.53;;
67051;SDS011;53957;47.222;18.670;2022-10-12T19:10:40;13.30;;;8.23;;
67051;SDS011;53957;47.222;18.670;2022-10-12T19:13:43;12.93;;;8.15;;
67051;SDS011;53957;47.222;18.670;2022-10-12T19:16:53;11.10;;;8.13;;
67051;SDS011;53957;47.222;18.670;2022-10-12T19:19:55;13.32;;;8.25;;
67051;SDS011;53957;47.222;18.670;2022-10-12T19:23:03;11.23;;;8.50;;
67051;SDS011;53957;47.222;18.670;2022-10-12T19:26:07;13.75;;;9.02;;
67051;SDS011;53957;47.222;18.670;2022-10-12T19:29:12;10.55;;;8.13;;
67051;SDS011;53957;47.222;18.670;2022-10-12T19:32:15;13.43;;;8.60;;
67051;SDS011;53957;47.222;18.670;2022-10-12T19:35:19;14.18;;;8.48;;
67051;SDS011;53957;47.222;18.670;2022-10-12T19:38:22;12.18;;;8.82;;
67051;SDS011;53957;47.222;18.670;2022-10-12T19:41:26;11.88;;;8.38;;
67051;SDS011;53957;47.222;18.670;2022-10-12T19:44:31;10.93;;;8.48;;
67051;SDS011;53957;47.222;18.670;2022-10-12T19:47:34;13.23;;;9.00;;
67051;SDS011;53957;47.222;18.670;2022-10-12T19:50:37;12.25;;;8.95;;
67051;SDS011;53957;47.222;18.670;2022-10-12T19:53:40;24.33;;;9.68;;
67051;SDS011;53957;47.222;18.670;2022-10-12T19:56:43;11.50;;;8.65;;
67051;SDS011;53957;47.222;18.670;2022-10-12T19:59:46;17.20;;;9.90;;
67051;SDS011;53957;47.222;18.670;2022-10-12T20:02:48;11.82;;;8.50;;
67051;SDS011;53957;47.222;18.670;2022-10-12T20:05:51;14.93;;;9.45;;
67051;SDS011;53957;47.222;18.670;2022-10-12T20:08:54;13.65;;;9.80;;
67051;SDS011;53957;47.222;18.670;2022-10-12T20:11:59;15.27;;;10.60;;
67051;SDS011;53957;47.222;18.670;2022-10-12T20:15:02;14.07;;;10.02;;
67051;SDS011;53957;47.222;18.670;2022-10-12T20:18:05;17.55;;;9.57;;
67051;SDS011;53957;47.222;18.670;2022-10-12T20:21:08;13.40;;;9.30;;
67051;SDS011;53957;47.222;18.670;2022-10-12T20:24:12;13.00;;;9.40;;
67051;SDS011;53957;47.222;18.670;2022-10-12T20:27:15;16.90;;;9.70;;
67051;SDS011;53957;47.222;18.670;2022-10-12T20:30:18;13.98;;;9.73;;
67051;SDS011;53957;47.222;18.670;2022-10-12T20:33:22;17.12;;;10.30;;
67051;SDS011;53957;47.222;18.670;2022-10-12T20:36:27;14.45;;;10.27;;
67051;SDS011;53957;47.222;18.670;2022-10-12T20:39:31;13.62;;;10.40;;
67051;SDS011;53957;47.222;18.670;2022-10-12T20:42:35;17.83;;;10.38;;
67051;SDS011;53957;47.222;18.670;2022-10-12T20:45:38;14.80;;;10.93;;
67051;SDS011;53957;47.222;18.670;2022-10-12T20:48:41;24.50;;;11.57;;
67051;SDS011;53957;47.222;18.670;2022-10-12T20:51:45;19.65;;;10.65;;
67051;SDS011;53957;47.222;18.670;2022-10-12T20:54:51;30.20;;;11.48;;
67051;SDS011;53957;47.222;18.670;2022-10-12T20:57:54;19.62;;;11.77;;
67051;SDS011;53957;47.222;18.670;2022-10-12T21:01:01;22.98;;;11.30;;